^^
Saratoga-Weather Station Historical Data
Daily Summary for July 19, 2021 Units:  English    Metric   Both
Daily Weekly Monthly Yearly Custom
  High: Low: Average:
Temperature: 47.5 °F 46.2 °F 46.9 °F
Dew Point: 46.4 °F 44.8 °F 45.7 °F
Humidity: 96% 95% 96%
Wind Speed: 0mph 0mph 0mph
Wind Gust: 0mph - -
Wind- -
Pressure: 30.2 in 30.2 in -
Precipitation: 0 in    
Historical Graphs
 
 
Tabular Data for July 19, 2021
Time Temperature Dew Point Pressure Wind Wind Speed Wind Gust Humidity Rainfall Rate (Hourly) solar
00:04 46.6 °F 45.1 °F 30.2 in Calm     95% 0 in 0 W/m2
00:09 46.4 °F 45 °F 30.2 in Calm     95% 0 in 0 W/m2
00:14 46.2 °F 44.8 °F 30.2 in Calm     95% 0 in 0 W/m2
00:19 46.2 °F 44.8 °F 30.2 in Calm     95% 0 in 0 W/m2
00:24 46.2 °F 45.1 °F 30.2 in Calm     96% 0 in 0 W/m2
00:29 46.2 °F 45.1 °F 30.2 in Calm     96% 0 in 0 W/m2
00:34 46.4 °F 45.3 °F 30.2 in Calm     96% 0 in 0 W/m2
00:39 46.6 °F 45.5 °F 30.2 in Calm     96% 0 in 0 W/m2
00:44 46.6 °F 45.5 °F 30.2 in Calm     96% 0 in 0 W/m2
00:49 46.8 °F 45.7 °F 30.2 in Calm     96% 0 in 0 W/m2
00:54 46.9 °F 45.9 °F 30.2 in Calm     96% 0 in 0 W/m2
00:59 46.9 °F 45.9 °F 30.2 in Calm     96% 0 in 0 W/m2
01:04 47.1 °F 46 °F 30.2 in Calm     96% 0 in 0 W/m2
01:09 47.1 °F 46 °F 30.2 in Calm     96% 0 in 0 W/m2
01:14 47.1 °F 46 °F 30.2 in Calm     96% 0 in 0 W/m2
01:19 47.1 °F 46 °F 30.2 in Calm     96% 0 in 0 W/m2
01:24 47.3 °F 46.2 °F 30.2 in Calm     96% 0 in 0 W/m2
01:29 47.3 °F 46.2 °F 30.2 in Calm     96% 0 in 0 W/m2
01:34 47.3 °F 46.2 °F 30.2 in Calm     96% 0 in 0 W/m2
01:39 47.3 °F 46.2 °F 30.2 in Calm     96% 0 in 0 W/m2
01:44 47.3 °F 46.2 °F 30.2 in Calm     96% 0 in 0 W/m2
01:49 47.5 °F 46.4 °F 30.2 in Calm     96% 0 in 0 W/m2
01:54 47.5 °F 46.4 °F 30.2 in Calm     96% 0 in 0 W/m2
01:59 47.5 °F 46.4 °F 30.2 in Calm     96% 0 in 0 W/m2
Juneau County Weather
Compliments of Weather Underground - 2 mb